Time;durP1;ratioP1;P1;durP2;ratioP2;P2;SDS_P1;SDS_P2;PMS_P1;PMS_P2;Temp;Humidity;BMP_temperature;BMP_pressure;BME280_temperature;BME280_humidity;BME280_pressure;Samples;Min_cycle;Max_cycle;Signal;HPM_P1;HPM_P2
2021/05/03 00:02:00;;;;;;;26.63;25.13;;;8.20;73.50;;;;;;5092165;28;20297;-77
2021/05/03 00:04:27;;;;;;;26.92;25.33;;;8.10;73.60;;;;;;5092110;28;20232;-76
2021/05/03 00:06:53;;;;;;;26.55;24.90;;;8.00;73.80;;;;;;5091758;28;20635;-76
2021/05/03 00:09:19;;;;;;;27.73;26.00;;;8.10;74.20;;;;;;5092135;28;20199;-76
2021/05/03 00:11:46;;;;;;;26.85;25.23;;;8.10;73.90;;;;;;5092150;28;20277;-76
2021/05/03 00:14:14;;;;;;;28.33;26.63;;;8.00;77.60;;;;;;5091309;28;20195;-76
2021/05/03 00:16:40;;;;;;;26.95;25.38;;;7.90;75.80;;;;;;5091481;28;20206;-76
2021/05/03 00:19:07;;;;;;;26.75;25.17;;;7.80;75.50;;;;;;5093080;28;20193;-76
2021/05/03 00:21:33;;;;;;;27.40;25.70;;;7.80;75.20;;;;;;5095982;28;20231;-76
2021/05/03 00:24:00;;;;;;;27.38;25.48;;;7.70;75.20;;;;;;5096117;28;20195;-76
2021/05/03 00:26:26;;;;;;;26.85;25.27;;;7.60;76.90;;;;;;5095525;28;20686;-76
2021/05/03 00:28:53;;;;;;;27.48;25.58;;;7.60;79.50;;;;;;5095594;28;20221;-75
2021/05/03 00:31:20;;;;;;;27.08;25.48;;;7.50;80.30;;;;;;5095807;28;20223;-76
2021/05/03 00:33:46;;;;;;;27.40;25.67;;;7.40;77.90;;;;;;5095796;28;20282;-75
2021/05/03 00:36:13;;;;;;;27.25;25.70;;;7.40;77.20;;;;;;5095025;28;20285;-76
2021/05/03 00:38:39;;;;;;;25.35;23.95;;;7.40;76.90;;;;;;5095898;28;20316;-76
2021/05/03 00:41:06;;;;;;;26.90;25.30;;;7.30;76.50;;;;;;5095639;28;20210;-75
2021/05/03 00:43:32;;;;;;;26.65;24.95;;;7.30;77.70;;;;;;5095665;28;20285;-75
2021/05/03 00:45:59;;;;;;;26.80;25.20;;;7.30;79.50;;;;;;5095146;28;20690;-75
2021/05/03 00:48:26;;;;;;;26.80;25.20;;;7.30;79.80;;;;;;5095473;28;20213;-76
2021/05/03 00:50:52;;;;;;;25.38;23.95;;;7.20;78.50;;;;;;5095381;28;20705;-76
2021/05/03 00:53:19;;;;;;;26.92;25.23;;;7.30;78.00;;;;;;5095531;28;20205;-76
2021/05/03 00:55:46;;;;;;;25.90;24.40;;;7.20;77.30;;;;;;5094999;28;20749;-75
2021/05/03 00:58:13;;;;;;;27.10;25.40;;;7.20;77.80;;;;;;5095477;28;20196;-75
2021/05/03 01:00:40;;;;;;;26.27;24.73;;;7.30;80.50;;;;;;5095247;28;20298;-76
2021/05/03 01:03:06;;;;;;;25.35;23.85;;;7.30;81.40;;;;;;5095555;28;20208;-76
2021/05/03 01:05:34;;;;;;;26.02;24.30;;;7.30;81.50;;;;;;5094769;28;20301;-75
2021/05/03 01:08:02;;;;;;;26.52;25.00;;;7.30;79.40;;;;;;5095357;28;20202;-76
2021/05/03 01:10:29;;;;;;;26.70;25.10;;;7.20;78.20;;;;;;5094947;28;20315;-75
2021/05/03 01:12:57;;;;;;;26.77;25.08;;;7.20;78.00;;;;;;5095127;28;20339;-76
2021/05/03 01:15:24;;;;;;;27.15;25.45;;;7.10;77.90;;;;;;5094856;28;20196;-76
2021/05/03 01:17:56;;;;;;;27.38;25.67;;;7.20;78.60;;;;;;5094828;28;20222;-76
2021/05/03 01:20:24;;;;;;;27.02;25.13;;;7.30;78.00;;;;;;5095020;28;20207;-76
2021/05/03 01:22:54;;;;;;;27.60;26.00;;;7.20;79.80;;;;;;5094971;28;20225;-76
2021/05/03 01:25:21;;;;;;;27.50;25.90;;;7.30;78.10;;;;;;5094670;28;20196;-75
2021/05/03 01:27:49;;;;;;;28.27;26.58;;;7.30;77.10;;;;;;5094580;28;20339;-76
2021/05/03 01:30:16;;;;;;;27.60;25.80;;;7.20;76.80;;;;;;5093593;28;20232;-76
2021/05/03 01:32:43;;;;;;;28.30;26.60;;;7.20;77.10;;;;;;5094601;28;20299;-75
2021/05/03 01:35:12;;;;;;;27.15;25.50;;;7.10;78.20;;;;;;5094527;28;20288;-76
2021/05/03 01:37:39;;;;;;;28.65;26.70;;;7.10;78.90;;;;;;5094079;28;20282;-75
2021/05/03 01:40:08;;;;;;;29.00;27.05;;;7.20;78.20;;;;;;5094671;28;20564;-76
2021/05/03 01:42:35;;;;;;;29.30;27.40;;;7.20;78.40;;;;;;5094558;28;20199;-76
2021/05/03 01:45:02;;;;;;;27.48;25.88;;;7.10;78.10;;;;;;5094311;28;20681;-77
2021/05/03 01:47:30;;;;;;;27.80;26.10;;;7.10;77.90;;;;;;5093920;28;20300;-75
2021/05/03 01:49:56;;;;;;;27.48;25.55;;;7.10;77.90;;;;;;5094541;28;20257;-76
2021/05/03 01:52:23;;;;;;;27.65;25.85;;;7.10;80.80;;;;;;5094473;28;20197;-75
2021/05/03 01:54:51;;;;;;;27.85;26.00;;;7.00;81.30;;;;;;5094350;28;20201;-75
2021/05/03 01:57:19;;;;;;;27.35;25.65;;;7.00;82.40;;;;;;5093794;28;20544;-76
2021/05/03 01:59:47;;;;;;;28.35;26.60;;;7.00;81.00;;;;;;5094308;28;20203;-76
2021/05/03 02:02:14;;;;;;;27.77;26.08;;;6.90;80.10;;;;;;5094319;28;20219;-75
2021/05/03 02:04:41;;;;;;;27.08;25.48;;;7.00;79.60;;;;;;5094300;28;20247;-76
2021/05/03 02:07:07;;;;;;;28.90;27.05;;;6.90;79.50;;;;;;5093498;28;20297;-76
2021/05/03 02:09:33;;;;;;;27.55;25.77;;;6.90;79.60;;;;;;5093892;28;20285;-76
2021/05/03 02:12:00;;;;;;;26.65;25.05;;;6.90;83.90;;;;;;5094000;28;20300;-76
2021/05/03 02:14:27;;;;;;;27.15;25.45;;;6.80;87.10;;;;;;5093960;28;20200;-76
2021/05/03 02:16:53;;;;;;;26.42;24.83;;;6.70;84.20;;;;;;5093486;28;20201;-76
2021/05/03 02:19:20;;;;;;;26.85;25.15;;;6.70;82.90;;;;;;5093918;28;20253;-76
2021/05/03 02:21:46;;;;;;;26.90;25.20;;;6.60;81.90;;;;;;5093854;28;20214;-75
2021/05/03 02:24:13;;;;;;;28.42;26.63;;;6.70;81.50;;;;;;5093715;28;20297;-75
2021/05/03 02:26:39;;;;;;;28.25;26.20;;;6.60;81.70;;;;;;5093308;28;20225;-76
2021/05/03 02:29:05;;;;;;;36.95;27.20;;;6.50;85.70;;;;;;5093164;28;20230;-75
2021/05/03 02:31:33;;;;;;;27.38;25.58;;;6.50;88.50;;;;;;5093521;28;20758;-77
2021/05/03 02:33:59;;;;;;;26.33;24.58;;;6.40;85.70;;;;;;5093497;28;20203;-76
2021/05/03 02:36:26;;;;;;;27.38;25.60;;;6.30;84.60;;;;;;5092766;28;20256;-75
2021/05/03 02:38:52;;;;;;;28.02;26.23;;;6.20;83.60;;;;;;5093464;28;20236;-76
2021/05/03 02:41:18;;;;;;;28.13;26.42;;;6.20;83.20;;;;;;5093391;28;20299;-76
2021/05/03 02:43:45;;;;;;;33.03;30.98;;;6.20;83.00;;;;;;5092323;28;20281;-75
2021/05/03 02:46:11;;;;;;;28.23;26.38;;;6.20;82.40;;;;;;5092837;28;20260;-76
2021/05/03 02:48:38;;;;;;;27.65;25.88;;;6.20;82.80;;;;;;5093275;28;20207;-75
2021/05/03 02:51:05;;;;;;;30.15;28.25;;;6.10;82.80;;;;;;5093067;28;20229;-76
2021/05/03 02:53:33;;;;;;;31.33;29.02;;;6.00;82.70;;;;;;5093308;28;20341;-77
2021/05/03 02:55:59;;;;;;;28.10;26.20;;;6.00;82.90;;;;;;5092988;28;20191;-76
2021/05/03 02:58:26;;;;;;;26.40;24.77;;;5.90;83.00;;;;;;5093115;28;20201;-75
2021/05/03 03:00:52;;;;;;;28.30;26.50;;;5.90;83.10;;;;;;5093169;28;20211;-76
2021/05/03 03:03:18;;;;;;;29.95;27.40;;;5.80;84.20;;;;;;5092952;28;20218;-75
2021/05/03 03:05:46;;;;;;;26.55;24.85;;;5.80;85.60;;;;;;5092637;28;20198;-75
2021/05/03 03:08:12;;;;;;;27.50;25.70;;;5.80;87.10;;;;;;5092966;28;20226;-75
2021/05/03 03:10:39;;;;;;;29.77;27.67;;;5.80;86.40;;;;;;5092943;28;20224;-75
2021/05/03 03:13:05;;;;;;;31.65;28.88;;;5.70;85.30;;;;;;5092938;28;20257;-76
2021/05/03 03:15:34;;;;;;;29.38;27.45;;;5.70;85.30;;;;;;5092255;28;20207;-76
2021/05/03 03:18:02;;;;;;;28.77;26.60;;;5.80;84.80;;;;;;5092704;28;20195;-75
2021/05/03 03:20:29;;;;;;;29.40;27.50;;;5.80;84.30;;;;;;5092673;28;20276;-76
2021/05/03 03:22:56;;;;;;;27.95;26.15;;;5.80;84.10;;;;;;5092659;28;20207;-75
2021/05/03 03:25:23;;;;;;;27.70;26.00;;;5.70;84.20;;;;;;5092469;28;20201;-75
2021/05/03 03:27:50;;;;;;;28.35;26.50;;;5.70;84.40;;;;;;5092340;28;20289;-76
2021/05/03 03:30:17;;;;;;;29.23;27.23;;;5.70;84.50;;;;;;5091976;28;20323;-77
2021/05/03 03:32:44;;;;;;;29.40;27.40;;;5.60;84.90;;;;;;5092411;28;20203;-76
2021/05/03 03:35:13;;;;;;;29.63;27.52;;;5.60;85.10;;;;;;5092198;28;20241;-76
2021/05/03 03:37:40;;;;;;;28.48;26.40;;;5.70;84.80;;;;;;5091890;28;20191;-76
2021/05/03 03:40:09;;;;;;;35.35;32.95;;;5.70;84.40;;;;;;5092405;28;20683;-76
2021/05/03 03:42:35;;;;;;;30.50;28.50;;;5.60;84.50;;;;;;5092393;28;20201;-76
2021/05/03 03:45:06;;;;;;;28.20;26.10;;;5.50;84.80;;;;;;5092283;28;20195;-76
2021/05/03 03:47:33;;;;;;;31.40;29.20;;;5.50;85.20;;;;;;5091528;28;20622;-76
2021/05/03 03:49:59;;;;;;;29.50;27.33;;;5.60;84.70;;;;;;5092288;28;20206;-76
2021/05/03 03:52:26;;;;;;;29.15;27.27;;;5.60;84.90;;;;;;5092494;28;20195;-76
2021/05/03 03:54:52;;;;;;;28.80;26.80;;;5.60;85.10;;;;;;5092041;28;20676;-76
2021/05/03 03:57:20;;;;;;;32.95;30.65;;;5.50;85.50;;;;;;5091801;28;20191;-76
2021/05/03 03:59:50;;;;;;;31.65;28.80;;;5.50;86.10;;;;;;5092105;28;20201;-76
2021/05/03 04:02:16;;;;;;;35.85;33.30;;;5.60;86.30;;;;;;5091847;28;20249;-76
2021/05/03 04:04:46;;;;;;;32.30;29.63;;;5.70;86.70;;;;;;5092299;28;20195;-76
2021/05/03 04:07:18;;;;;;;29.15;27.17;;;5.70;86.20;;;;;;5091586;28;20199;-77
2021/05/03 04:09:49;;;;;;;32.65;30.58;;;5.70;85.80;;;;;;5092051;28;20195;-78
2021/05/03 04:25:54;;;;;;;28.73;26.77;;;5.80;85.30;;;;;;5091357;28;20243;-76
2021/05/03 04:28:20;;;;;;;30.15;28.05;;;5.80;85.10;;;;;;5091926;28;20290;-76
2021/05/03 04:30:47;;;;;;;29.55;27.48;;;5.70;85.20;;;;;;5091356;28;20267;-76
2021/05/03 04:33:14;;;;;;;29.60;27.70;;;5.70;85.40;;;;;;5091797;28;20199;-77
2021/05/03 04:35:40;;;;;;;32.97;30.77;;;5.70;85.40;;;;;;5091297;28;20289;-76
2021/05/03 04:38:07;;;;;;;30.95;28.75;;;5.70;87.40;;;;;;5091821;28;20783;-77
2021/05/03 04:40:33;;;;;;;35.55;29.13;;;5.80;87.20;;;;;;5091752;28;20363;-76
2021/05/03 04:42:59;;;;;;;29.98;27.85;;;5.90;85.60;;;;;;5091916;28;20195;-77
2021/05/03 04:45:26;;;;;;;31.38;29.27;;;6.00;84.20;;;;;;5091596;28;20195;-76
2021/05/03 04:47:53;;;;;;;30.85;28.75;;;6.00;84.20;;;;;;5091464;28;20207;-77
2021/05/03 04:50:19;;;;;;;31.67;29.63;;;6.00;84.20;;;;;;5091640;28;20265;-77
2021/05/03 04:52:46;;;;;;;31.25;29.05;;;5.90;84.50;;;;;;5092080;28;20210;-76
2021/05/03 04:55:12;;;;;;;30.38;28.27;;;6.10;84.00;;;;;;5091784;28;20231;-77
2021/05/03 04:57:39;;;;;;;29.67;27.58;;;6.10;83.40;;;;;;5091119;28;20230;-76
2021/05/03 05:00:06;;;;;;;30.80;28.77;;;6.00;83.30;;;;;;5091562;28;20199;-77
2021/05/03 05:02:32;;;;;;;38.63;36.42;;;5.90;83.30;;;;;;5091519;28;20672;-77
2021/05/03 05:05:01;;;;;;;28.95;26.90;;;5.80;83.90;;;;;;5091783;28;20199;-77
2021/05/03 05:07:28;;;;;;;31.63;29.52;;;5.90;83.60;;;;;;5094289;28;20199;-76
2021/05/03 05:09:54;;;;;;;29.25;27.23;;;5.90;83.40;;;;;;5095504;28;20644;-77
2021/05/03 05:12:20;;;;;;;29.33;27.42;;;6.10;83.30;;;;;;5095040;28;20219;-75
2021/05/03 05:14:47;;;;;;;29.83;27.63;;;6.10;83.20;;;;;;5095302;28;20223;-76
2021/05/03 05:17:13;;;;;;;30.27;28.08;;;6.20;83.50;;;;;;5094680;28;20284;-76
2021/05/03 05:19:40;;;;;;;31.00;29.00;;;6.20;87.60;;;;;;5095288;28;20211;-77
2021/05/03 05:22:07;;;;;;;30.77;28.67;;;6.30;86.00;;;;;;5095032;28;20293;-75
2021/05/03 05:24:35;;;;;;;32.95;30.63;;;6.30;84.20;;;;;;5094876;28;20282;-77
2021/05/03 05:27:02;;;;;;;31.48;28.88;;;6.50;83.60;;;;;;5094304;28;20202;-75
2021/05/03 05:29:29;;;;;;;32.47;30.27;;;6.70;82.70;;;;;;5094427;28;20253;-76
2021/05/03 05:31:56;;;;;;;31.50;29.48;;;6.80;81.30;;;;;;5094843;28;20250;-76
2021/05/03 05:34:22;;;;;;;32.00;29.92;;;6.70;81.00;;;;;;5094654;28;20278;-75
2021/05/03 05:36:48;;;;;;;31.73;29.52;;;6.70;80.80;;;;;;5094252;28;20290;-76
2021/05/03 05:39:16;;;;;;;33.10;30.33;;;6.80;81.60;;;;;;5094649;28;20257;-77
2021/05/03 05:41:42;;;;;;;29.90;28.05;;;6.80;81.40;;;;;;5094631;28;20296;-77
2021/05/03 05:44:09;;;;;;;33.42;31.23;;;6.80;81.10;;;;;;5094661;28;20196;-76
2021/05/03 05:46:36;;;;;;;32.42;30.13;;;6.90;80.80;;;;;;5094123;28;20628;-76
2021/05/03 05:49:03;;;;;;;31.55;29.45;;;7.10;80.00;;;;;;5094590;28;20300;-77
2021/05/03 05:51:30;;;;;;;32.03;29.92;;;7.20;80.10;;;;;;5094644;28;20234;-77
2021/05/03 05:53:57;;;;;;;32.42;29.92;;;7.20;79.60;;;;;;5094353;28;20201;-77
2021/05/03 05:56:24;;;;;;;34.08;31.88;;;7.40;86.20;;;;;;5093681;28;20538;-76
2021/05/03 05:58:51;;;;;;;33.92;31.42;;;7.40;81.90;;;;;;5094292;28;20284;-77
2021/05/03 06:01:17;;;;;;;32.40;30.27;;;7.50;80.30;;;;;;5094352;28;20726;-77
2021/05/03 06:03:44;;;;;;;40.45;37.55;;;7.60;78.70;;;;;;5094243;28;20249;-77
2021/05/03 06:06:11;;;;;;;36.30;32.78;;;7.70;77.70;;;;;;5093596;28;20697;-77
2021/05/03 06:08:38;;;;;;;34.10;31.80;;;7.90;77.00;;;;;;5094043;28;20195;-77
2021/05/03 06:11:04;;;;;;;34.30;31.70;;;8.10;76.10;;;;;;5093691;28;20250;-77
2021/05/03 06:13:31;;;;;;;34.33;31.80;;;8.30;75.30;;;;;;5093943;28;20195;-77
2021/05/03 06:15:58;;;;;;;34.25;31.77;;;8.40;74.80;;;;;;5093392;28;20191;-76
2021/05/03 06:18:24;;;;;;;34.30;31.70;;;8.60;73.00;;;;;;5093706;28;20668;-77
2021/05/03 06:20:51;;;;;;;32.97;30.27;;;8.70;72.30;;;;;;5093786;28;20641;-77
2021/05/03 06:23:17;;;;;;;33.83;31.42;;;8.80;72.30;;;;;;5093730;28;20227;-77
2021/05/03 06:25:43;;;;;;;32.33;29.80;;;8.80;76.00;;;;;;5093158;28;20240;-77
2021/05/03 06:28:10;;;;;;;31.20;28.95;;;8.90;74.50;;;;;;5093782;28;20191;-77
2021/05/03 06:30:38;;;;;;;35.20;32.80;;;9.10;72.90;;;;;;5093228;28;20681;-77
2021/05/03 06:33:04;;;;;;;34.30;32.00;;;9.20;71.70;;;;;;5093531;28;20210;-77
2021/05/03 06:35:32;;;;;;;30.75;28.80;;;9.40;70.10;;;;;;5093032;28;20244;-77
2021/05/03 06:37:58;;;;;;;32.38;30.13;;;9.50;69.20;;;;;;5093478;28;20202;-76
2021/05/03 06:40:25;;;;;;;31.48;29.15;;;9.40;69.30;;;;;;5093655;28;20684;-76
2021/05/03 06:42:51;;;;;;;32.33;30.25;;;9.60;68.80;;;;;;5093461;28;20738;-76
2021/05/03 06:45:19;;;;;;;34.25;32.00;;;9.70;69.00;;;;;;5093558;28;20286;-76
2021/05/03 06:47:48;;;;;;;33.55;31.38;;;9.80;69.10;;;;;;5093142;28;20294;-75
2021/05/03 06:50:15;;;;;;;32.40;30.00;;;9.90;71.90;;;;;;5093339;28;20202;-77
2021/05/03 06:52:44;;;;;;;31.67;29.17;;;10.10;69.30;;;;;;5093242;28;20298;-77
2021/05/03 06:55:12;;;;;;;33.53;31.02;;;10.10;67.50;;;;;;5093094;28;20195;-77
2021/05/03 06:57:38;;;;;;;32.13;30.02;;;10.20;67.30;;;;;;5092826;28;20203;-76
2021/05/03 07:00:06;;;;;;;34.33;32.03;;;10.30;66.90;;;;;;5093197;28;20657;-77
2021/05/03 07:02:33;;;;;;;33.25;30.85;;;10.50;66.20;;;;;;5093431;28;20199;-77
2021/05/03 07:05:00;;;;;;;32.35;29.85;;;10.60;67.20;;;;;;5093037;28;20282;-76
2021/05/03 07:07:27;;;;;;;36.78;34.67;;;10.70;66.70;;;;;;5092340;28;20282;-76
2021/05/03 07:09:54;;;;;;;34.07;31.03;;;10.70;65.70;;;;;;5092992;28;20199;-77
2021/05/03 07:12:21;;;;;;;32.90;29.90;;;10.70;63.10;;;;;;5092813;28;20477;-76
2021/05/03 07:14:48;;;;;;;33.40;31.07;;;10.90;62.90;;;;;;5092932;28;20229;-76
2021/05/03 07:17:15;;;;;;;35.67;32.87;;;11.00;63.20;;;;;;5092156;28;20452;-76
2021/05/03 07:19:41;;;;;;;36.93;34.67;;;11.20;63.90;;;;;;5092800;28;20450;-76
2021/05/03 07:22:10;;;;;;;30.67;28.73;;;11.30;62.10;;;;;;5092714;28;20469;-76
2021/05/03 07:24:37;;;;;;;33.00;30.80;;;11.30;60.80;;;;;;5093097;28;20532;-76
2021/05/03 07:27:03;;;;;;;32.70;30.50;;;11.40;60.50;;;;;;5092281;28;20454;-76
2021/05/03 07:29:30;;;;;;;31.63;29.63;;;11.40;60.10;;;;;;5091538;28;20452;-76
2021/05/03 07:31:56;;;;;;;32.47;30.20;;;11.40;59.90;;;;;;5092851;28;20558;-77
2021/05/03 07:34:23;;;;;;;32.27;29.77;;;11.50;60.10;;;;;;5092428;28;20460;-78
2021/05/03 07:36:49;;;;;;;32.50;30.40;;;11.60;60.20;;;;;;5091872;28;20461;-76
2021/05/03 07:39:16;;;;;;;33.80;31.43;;;11.70;60.10;;;;;;5092440;28;20831;-77
2021/05/03 07:41:43;;;;;;;34.00;31.90;;;11.70;59.90;;;;;;5092521;28;20477;-76
2021/05/03 07:44:10;;;;;;;31.90;29.90;;;11.60;61.60;;;;;;5092479;28;20457;-76
2021/05/03 07:46:37;;;;;;;33.83;31.73;;;11.60;59.70;;;;;;5091778;28;20851;-77
2021/05/03 07:49:05;;;;;;;33.73;31.30;;;11.80;59.30;;;;;;5092315;28;20449;-77
2021/05/03 07:51:32;;;;;;;33.07;30.87;;;11.90;58.90;;;;;;5092095;28;20520;-77
2021/05/03 07:53:59;;;;;;;35.63;33.43;;;11.90;59.50;;;;;;5092335;28;20459;-77
2021/05/03 07:56:30;;;;;;;33.00;30.50;;;12.10;59.10;;;;;;5091880;28;20456;-76
2021/05/03 07:58:57;;;;;;;32.50;30.30;;;12.10;58.30;;;;;;5092480;28;20957;-77
2021/05/03 08:01:23;;;;;;;34.97;32.53;;;12.20;58.10;;;;;;5092125;28;20524;-78
2021/05/03 08:03:50;;;;;;;33.10;30.80;;;12.10;59.30;;;;;;5092279;28;20532;-77
2021/05/03 08:06:16;;;;;;;32.07;29.90;;;12.10;59.80;;;;;;5091714;28;20540;-77
2021/05/03 08:08:44;;;;;;;35.83;33.37;;;12.20;59.50;;;;;;5092409;28;20475;-77
2021/05/03 08:11:12;;;;;;;35.07;32.87;;;12.10;60.40;;;;;;5092096;28;20481;-77
2021/05/03 08:13:41;;;;;;;34.70;32.10;;;11.80;60.50;;;;;;5092205;28;20453;-77
2021/05/03 08:16:11;;;;;;;32.70;30.50;;;11.90;60.70;;;;;;5091602;28;20894;-77
2021/05/03 08:18:37;;;;;;;32.83;30.63;;;11.80;60.00;;;;;;5092166;28;20969;-77
2021/05/03 08:21:04;;;;;;;34.87;32.47;;;12.00;60.40;;;;;;5092031;28;20963;-77
2021/05/03 08:23:31;;;;;;;36.90;33.13;;;12.10;60.60;;;;;;5092054;28;20943;-76
2021/05/03 08:25:57;;;;;;;35.30;32.60;;;12.10;62.80;;;;;;5091594;28;20444;-76
2021/05/03 08:28:24;;;;;;;32.80;30.60;;;12.30;61.70;;;;;;5092105;28;20810;-76
2021/05/03 08:30:53;;;;;;;35.37;33.07;;;12.40;60.50;;;;;;5091498;28;20469;-77
2021/05/03 08:33:20;;;;;;;37.30;34.90;;;12.30;61.30;;;;;;5092340;28;20532;-76
2021/05/03 08:35:47;;;;;;;35.70;33.30;;;12.30;62.60;;;;;;5091161;28;20461;-76
2021/05/03 08:38:14;;;;;;;35.30;32.80;;;12.60;67.00;;;;;;5092006;28;20536;-77
2021/05/03 08:40:41;;;;;;;35.43;32.93;;;12.90;62.00;;;;;;5093886;28;20567;-78
2021/05/03 08:43:08;;;;;;;34.60;32.00;;;13.10;60.60;;;;;;5095830;28;20492;-77
2021/05/03 08:45:37;;;;;;;32.20;30.10;;;13.20;60.30;;;;;;5095089;28;20455;-77
2021/05/03 08:48:08;;;;;;;37.80;35.63;;;13.50;56.40;;;;;;5095583;28;20460;-77
2021/05/03 08:50:51;;;;;;;33.57;31.27;;;13.50;56.20;;;;;;5095614;28;20905;-76
2021/05/03 08:53:22;;;;;;;32.90;30.80;;;13.60;55.80;;;;;;5095640;28;20939;-76
2021/05/03 08:55:49;;;;;;;33.33;31.03;;;13.70;55.00;;;;;;5095039;28;20513;-76
2021/05/03 08:58:16;;;;;;;32.70;30.40;;;13.50;55.50;;;;;;5095581;28;20449;-76
2021/05/03 09:00:43;;;;;;;33.93;31.53;;;13.20;55.70;;;;;;5095673;28;20525;-77
2021/05/03 09:03:12;;;;;;;33.90;31.73;;;13.40;55.60;;;;;;5095720;28;20449;-76
2021/05/03 09:05:41;;;;;;;33.30;30.70;;;13.60;55.20;;;;;;5095150;28;20460;-77
2021/05/03 09:08:09;;;;;;;34.27;31.87;;;13.90;54.90;;;;;;5095318;28;20453;-77
2021/05/03 09:10:45;;;;;;;34.50;32.43;;;14.40;54.00;;;;;;5095529;28;20481;-76
2021/05/03 09:13:12;;;;;;;34.37;31.97;;;14.60;54.50;;;;;;5095648;28;20464;-77
2021/05/03 09:15:39;;;;;;;34.43;31.77;;;15.10;52.80;;;;;;5094931;28;20457;-77
2021/05/03 09:18:05;;;;;;;33.77;31.37;;;15.10;52.70;;;;;;5095544;28;20481;-77
2021/05/03 09:20:33;;;;;;;33.10;30.90;;;15.20;51.60;;;;;;5095369;28;20564;-77
2021/05/03 09:23:04;;;;;;;33.47;31.23;;;15.10;51.90;;;;;;5095176;28;20453;-76
2021/05/03 09:25:35;;;;;;;32.70;30.70;;;15.40;52.10;;;;;;5094753;28;20453;-76
2021/05/03 09:28:04;;;;;;;34.33;31.90;;;15.20;51.50;;;;;;5095000;28;20457;-77
2021/05/03 09:30:36;;;;;;;33.73;31.23;;;15.10;50.80;;;;;;5094306;28;20477;-77
2021/05/03 09:33:17;;;;;;;32.77;30.70;;;15.10;54.60;;;;;;5094904;28;20540;-76
2021/05/03 09:35:46;;;;;;;33.33;30.97;;;15.20;51.00;;;;;;5094577;28;20481;-78
2021/05/03 09:38:31;;;;;;;32.03;29.83;;;15.40;49.40;;;;;;5095133;28;20506;-77
2021/05/03 09:41:08;;;;;;;30.27;28.40;;;15.30;49.40;;;;;;5095476;28;20481;-77
2021/05/03 09:43:34;;;;;;;31.30;29.07;;;15.30;45.60;;;;;;5094704;28;21357;-76
2021/05/03 09:46:21;;;;;;;30.20;28.40;;;15.20;45.50;;;;;;5094006;28;20449;-77
2021/05/03 09:48:48;;;;;;;30.90;29.00;;;14.40;46.00;;;;;;5094560;28;20543;-77
2021/05/03 09:51:37;;;;;;;28.63;26.93;;;14.10;47.60;;;;;;5094035;28;20473;-76
2021/05/03 09:54:10;;;;;;;30.13;28.03;;;14.00;46.60;;;;;;5094611;28;20457;-76
2021/05/03 09:56:52;;;;;;;29.67;27.77;;;14.10;46.70;;;;;;5094029;28;21064;-77
2021/05/03 09:59:33;;;;;;;30.57;28.20;;;14.20;47.20;;;;;;5094471;28;20449;-77
2021/05/03 10:02:19;;;;;;;31.07;29.10;;;14.60;48.40;;;;;;5094442;28;20510;-76
2021/05/03 10:04:55;;;;;;;30.30;28.30;;;14.90;50.30;;;;;;5094573;28;20453;-76
2021/05/03 10:07:24;;;;;;;31.93;30.03;;;15.30;50.00;;;;;;5094063;28;20794;-77
2021/05/03 10:09:57;;;;;;;30.00;28.20;;;15.60;49.80;;;;;;5094609;28;20934;-76
2021/05/03 10:12:26;;;;;;;29.70;28.00;;;15.60;48.40;;;;;;5094180;28;20576;-76
2021/05/03 10:14:53;;;;;;;29.90;28.10;;;15.70;48.00;;;;;;5094024;28;20459;-75
2021/05/03 10:17:20;;;;;;;31.30;29.40;;;15.70;46.80;;;;;;5093434;28;20449;-77
2021/05/03 10:19:49;;;;;;;32.13;29.93;;;15.80;45.90;;;;;;5094212;28;20476;-76
2021/05/03 10:22:17;;;;;;;32.23;30.10;;;16.00;46.30;;;;;;5093881;28;20476;-77
2021/05/03 10:24:46;;;;;;;29.97;27.87;;;16.20;46.50;;;;;;5094060;28;20954;-77
2021/05/03 10:27:15;;;;;;;28.63;26.27;;;16.30;46.10;;;;;;5093269;28;21018;-76
2021/05/03 10:29:42;;;;;;;29.23;27.53;;;16.30;44.20;;;;;;5093190;28;20969;-77
2021/05/03 10:32:10;;;;;;;27.33;25.63;;;16.50;44.10;;;;;;5093743;28;20485;-77
2021/05/03 10:34:54;;;;;;;28.20;26.50;;;16.70;42.90;;;;;;5093593;28;20449;-76
2021/05/03 10:37:49;;;;;;;29.77;27.97;;;16.60;42.20;;;;;;5093356;28;20453;-76
2021/05/03 10:40:50;;;;;;;30.10;28.10;;;16.30;41.30;;;;;;5093761;28;20460;-76
2021/05/03 10:43:28;;;;;;;29.40;27.60;;;16.50;40.60;;;;;;5093715;28;20795;-76
2021/05/03 10:48:58;;;;;;;31.47;29.47;;;15.80;43.10;;;;;;5093077;28;20449;-76
2021/05/03 10:51:39;;;;;;;29.33;27.43;;;15.60;44.20;;;;;;5093202;28;20554;-76
2021/05/03 10:54:37;;;;;;;29.27;27.47;;;15.60;43.90;;;;;;5093485;28;20452;-76
2021/05/03 10:57:07;;;;;;;29.27;27.53;;;15.70;42.80;;;;;;5092844;28;20449;-76
2021/05/03 10:59:45;;;;;;;32.60;30.80;;;15.40;43.80;;;;;;5093180;28;20449;-76
2021/05/03 11:02:16;;;;;;;28.47;26.77;;;15.50;44.00;;;;;;5093055;28;20472;-76
2021/05/03 11:05:10;;;;;;;29.27;27.57;;;15.50;44.10;;;;;;5092336;28;20484;-77
2021/05/03 11:08:16;;;;;;;29.23;27.33;;;16.10;43.80;;;;;;5092635;28;20533;-76
2021/05/03 11:11:09;;;;;;;27.87;25.97;;;16.50;42.20;;;;;;5092625;28;20466;-76
2021/05/03 11:13:46;;;;;;;28.27;26.67;;;16.80;40.60;;;;;;5092970;28;20818;-76
2021/05/03 11:16:44;;;;;;;26.87;25.33;;;16.90;38.80;;;;;;5092216;28;20514;-76
2021/05/03 11:19:39;;;;;;;29.70;26.60;;;16.80;37.40;;;;;;5092899;28;20458;-77
2021/05/03 11:22:07;;;;;;;27.20;25.63;;;16.60;37.80;;;;;;5092870;28;20457;-76
2021/05/03 11:24:37;;;;;;;27.37;25.67;;;16.60;38.50;;;;;;5092797;28;20869;-76
2021/05/03 11:27:07;;;;;;;26.03;24.63;;;16.60;38.90;;;;;;5091877;28;20449;-76
2021/05/03 11:29:40;;;;;;;28.23;26.53;;;16.60;38.60;;;;;;5092114;28;20532;-77
2021/05/03 11:32:07;;;;;;;26.67;25.17;;;16.70;38.20;;;;;;5092539;28;20538;-76
2021/05/03 11:34:38;;;;;;;30.10;27.60;;;16.70;38.40;;;;;;5092233;28;20459;-78
2021/05/03 11:37:06;;;;;;;27.07;25.57;;;16.30;38.60;;;;;;5092067;28;20943;-76
2021/05/03 11:39:48;;;;;;;27.47;25.73;;;16.20;40.20;;;;;;5092526;28;20484;-76
2021/05/03 11:45:07;;;;;;;26.67;25.17;;;16.90;38.60;;;;;;5035252;28;20830;-76
2021/05/03 11:47:35;;;;;;;27.40;25.80;;;17.20;37.40;;;;;;5092052;28;20482;-76
2021/05/03 11:50:03;;;;;;;26.93;25.30;;;17.00;37.20;;;;;;5092315;28;20946;-76
2021/05/03 11:52:31;;;;;;;26.70;25.10;;;16.80;37.10;;;;;;5092347;28;20509;-76
2021/05/03 11:55:09;;;;;;;31.50;29.73;;;16.70;37.50;;;;;;5092198;28;20453;-76
2021/05/03 11:57:39;;;;;;;26.80;25.10;;;16.80;38.00;;;;;;5091669;28;20942;-76
2021/05/03 12:00:09;;;;;;;27.63;25.93;;;17.10;37.60;;;;;;5092397;28;20503;-77
2021/05/03 12:02:35;;;;;;;28.20;26.50;;;17.30;37.40;;;;;;5092617;28;20442;-76
2021/05/03 12:05:10;;;;;;;33.00;31.33;;;17.70;37.30;;;;;;5091948;28;21019;-76
2021/05/03 12:07:37;;;;;;;28.17;26.53;;;18.10;35.50;;;;;;5091810;28;20507;-76
2021/05/03 12:10:05;;;;;;;27.37;25.73;;;17.70;36.30;;;;;;5092096;28;20536;-77
2021/05/03 12:12:36;;;;;;;27.03;25.43;;;17.50;35.50;;;;;;5092260;28;20567;-77
2021/05/03 12:15:04;;;;;;;29.70;27.80;;;16.90;36.90;;;;;;5093212;28;20519;-76
2021/05/03 12:17:32;;;;;;;29.33;27.20;;;16.80;37.60;;;;;;5095803;28;20456;-77
2021/05/03 12:20:09;;;;;;;27.50;25.63;;;16.60;36.90;;;;;;5096110;28;20510;-76
2021/05/03 12:22:36;;;;;;;27.97;26.17;;;16.60;36.80;;;;;;5096274;28;20451;-75
2021/05/03 12:25:06;;;;;;;27.00;25.50;;;16.30;37.30;;;;;;5096246;28;20453;-76
2021/05/03 12:27:34;;;;;;;31.50;29.97;;;16.10;37.90;;;;;;5095517;28;20818;-75
2021/05/03 12:30:01;;;;;;;26.77;25.17;;;15.90;38.10;;;;;;5095534;28;20461;-76
2021/05/03 12:32:33;;;;;;;28.73;27.13;;;16.10;38.70;;;;;;5096028;28;20483;-76
2021/05/03 12:35:06;;;;;;;26.80;25.20;;;16.20;37.90;;;;;;5095584;28;20475;-76
2021/05/03 12:37:32;;;;;;;27.50;25.90;;;16.10;37.60;;;;;;5095386;28;20492;-77
2021/05/03 12:40:11;;;;;;;27.27;25.67;;;15.80;38.20;;;;;;5095905;28;20480;-77
2021/05/03 12:42:43;;;;;;;26.30;24.70;;;15.70;38.60;;;;;;5095887;28;20477;-76
2021/05/03 12:45:26;;;;;;;27.10;25.50;;;15.80;38.20;;;;;;5095827;28;20572;-77
2021/05/03 12:51:08;;;;;;;26.33;24.93;;;16.10;38.50;;;;;;5085071;28;20461;-77
2021/05/03 12:53:50;;;;;;;26.80;25.30;;;16.10;39.10;;;;;;5095659;28;20457;-77
2021/05/03 12:56:22;;;;;;;27.50;25.63;;;15.80;38.30;;;;;;5095093;28;20444;-77
2021/05/03 12:59:08;;;;;;;28.67;27.07;;;15.80;38.30;;;;;;5095513;28;20454;-77
2021/05/03 13:01:41;;;;;;;26.53;24.80;;;15.70;38.90;;;;;;5095465;28;20547;-78
2021/05/03 13:04:33;;;;;;;27.20;25.50;;;15.60;38.50;;;;;;5095519;28;20881;-76
2021/05/03 13:07:13;;;;;;;26.27;24.77;;;15.50;39.00;;;;;;5094777;28;20468;-77